createdAt,value
2023-04-10T00:02:16.376Z,23.04
2023-04-10T00:04:43.006Z,23.04
2023-04-10T00:07:09.645Z,23.04
2023-04-10T00:09:36.281Z,23.04
2023-04-10T00:12:02.967Z,23.05
2023-04-10T00:14:29.522Z,22.93
2023-04-10T00:16:56.313Z,22.97
2023-04-10T00:19:22.917Z,23.04
2023-04-10T00:21:49.468Z,23.03
2023-04-10T00:24:16.349Z,22.99
2023-04-10T00:26:43.085Z,22.97
2023-04-10T00:29:09.776Z,22.97
2023-04-10T00:31:36.493Z,23.00
2023-04-10T00:34:03.247Z,23.01
2023-04-10T00:36:29.989Z,23.00
2023-04-10T00:38:56.541Z,22.99
2023-04-10T00:41:23.983Z,23.00
2023-04-10T00:43:55.175Z,22.98
2023-04-10T00:46:22.124Z,22.97
2023-04-10T00:48:53.120Z,22.99
2023-04-10T00:51:23.257Z,22.98
2023-04-10T00:53:51.685Z,22.96
2023-04-10T00:56:19.440Z,22.96
2023-04-10T00:58:46.387Z,22.96
2023-04-10T01:01:13.315Z,22.96
2023-04-10T01:03:42.608Z,22.95
2023-04-10T01:06:20.207Z,22.84
2023-04-10T01:08:49.778Z,22.95
2023-04-10T01:11:27.970Z,22.95
2023-04-10T01:14:19.592Z,22.94
2023-04-10T01:16:53.712Z,22.90
2023-04-10T01:19:32.451Z,22.92
2023-04-10T01:22:01.878Z,22.92
2023-04-10T01:24:43.784Z,22.91
2023-04-10T01:27:24.407Z,22.90
2023-04-10T01:29:56.375Z,22.90
2023-04-10T01:32:24.207Z,22.90
2023-04-10T01:34:56.925Z,22.90
2023-04-10T01:37:27.389Z,22.86
2023-04-10T01:40:03.184Z,22.89
2023-04-10T01:42:32.780Z,22.89
2023-04-10T01:45:01.848Z,22.79
2023-04-10T01:47:29.084Z,22.87
2023-04-10T01:49:58.554Z,22.87
2023-04-10T01:52:26.502Z,22.87
2023-04-10T01:55:06.357Z,22.86
2023-04-10T01:57:40.875Z,22.87
2023-04-10T02:00:08.955Z,22.85
2023-04-10T02:02:42.787Z,22.85
2023-04-10T02:05:13.543Z,22.85
2023-04-10T02:07:46.586Z,22.84
2023-04-10T02:10:24.710Z,22.84
2023-04-10T02:12:55.556Z,22.83
2023-04-10T02:15:26.663Z,22.75
2023-04-10T02:17:54.878Z,22.83
2023-04-10T02:20:23.774Z,22.82
2023-04-10T02:22:52.122Z,22.72
2023-04-10T02:25:19.080Z,22.74
2023-04-10T02:27:45.634Z,22.81
2023-04-10T02:30:12.355Z,22.80
2023-04-10T02:32:39.725Z,22.81
2023-04-10T02:35:08.258Z,22.79
2023-04-10T02:37:37.261Z,22.80
2023-04-10T02:40:04.422Z,22.79
2023-04-10T02:42:41.715Z,22.77
2023-04-10T02:45:09.496Z,22.78
2023-04-10T02:47:39.975Z,22.78
2023-04-10T02:50:07.255Z,22.78
2023-04-10T02:52:36.801Z,22.77
2023-04-10T02:55:03.568Z,22.77
2023-04-10T02:57:35.329Z,22.77
2023-04-10T03:00:02.950Z,22.75
2023-04-10T03:02:34.282Z,22.75
2023-04-10T03:05:09.206Z,22.76
2023-04-10T03:07:36.537Z,22.75
2023-04-10T03:10:03.594Z,22.73
2023-04-10T03:12:30.550Z,22.74
2023-04-10T03:14:57.152Z,22.73
2023-04-10T03:17:23.696Z,22.74
2023-04-10T03:19:50.919Z,22.74
2023-04-10T03:22:17.546Z,22.73
2023-04-10T03:24:44.522Z,22.72
2023-04-10T03:27:11.886Z,22.72
2023-04-10T03:29:38.468Z,22.73
2023-04-10T03:32:06.053Z,22.71
2023-04-10T03:34:34.333Z,22.71
2023-04-10T03:37:00.937Z,22.71
2023-04-10T03:39:27.434Z,22.69
2023-04-10T03:41:53.970Z,22.71
2023-04-10T03:44:24.601Z,22.70
2023-04-10T03:46:52.838Z,22.69
2023-04-10T03:49:21.954Z,22.68
2023-04-10T03:51:48.725Z,22.69
2023-04-10T03:54:15.370Z,22.69
2023-04-10T03:56:41.972Z,22.69
2023-04-10T03:59:08.528Z,22.67
2023-04-10T04:01:39.775Z,22.68
2023-04-10T04:04:10.434Z,22.67
2023-04-10T04:07:15.424Z,22.57
2023-04-10T04:10:01.069Z,22.61
2023-04-10T04:12:53.921Z,22.65
2023-04-10T04:15:43.521Z,22.66
2023-04-10T04:18:20.994Z,22.64
2023-04-10T04:20:52.776Z,22.63
2023-04-10T04:23:36.554Z,22.64
2023-04-10T04:26:33.417Z,22.63
2023-04-10T04:29:12.880Z,22.64
2023-04-10T04:31:44.275Z,22.63
2023-04-10T04:34:40.111Z,22.63
2023-04-10T04:37:27.074Z,22.62
2023-04-10T04:40:14.288Z,22.62
2023-04-10T04:43:07.078Z,22.61
2023-04-10T04:45:52.485Z,22.61
2023-04-10T04:48:51.416Z,22.60
2023-04-10T04:51:38.113Z,22.50
2023-04-10T04:54:09.501Z,22.59
2023-04-10T04:56:50.582Z,22.58
2023-04-10T04:59:43.424Z,22.59
2023-04-10T05:02:23.220Z,22.58
2023-04-10T05:05:25.649Z,22.58
2023-04-10T05:08:04.181Z,22.52
2023-04-10T05:10:41.674Z,22.56
2023-04-10T05:13:41.931Z,22.55
2023-04-10T05:16:23.210Z,22.58
2023-04-10T05:19:04.275Z,22.58
2023-04-10T05:21:49.221Z,22.55
2023-04-10T05:24:34.714Z,22.57
2023-04-10T05:27:10.462Z,22.57
2023-04-10T05:30:02.007Z,22.54
2023-04-10T05:33:01.275Z,22.50
2023-04-10T05:35:48.438Z,22.54
2023-04-10T05:38:31.914Z,22.54
2023-04-10T05:41:34.202Z,22.54
2023-04-10T05:44:39.776Z,22.21
2023-04-10T05:47:26.591Z,22.43
2023-04-10T05:50:06.573Z,22.52
2023-04-10T05:52:51.184Z,22.53
2023-04-10T05:55:52.933Z,22.46
2023-04-10T05:58:42.565Z,22.52
2023-04-10T06:01:24.547Z,22.51
2023-04-10T06:03:56.110Z,22.52
2023-04-10T06:06:25.938Z,22.52
2023-04-10T06:08:53.554Z,22.52
2023-04-10T06:11:21.133Z,22.53
2023-04-10T06:13:52.643Z,22.53
2023-04-10T06:16:23.401Z,22.52
2023-04-10T06:18:52.618Z,22.54
2023-04-10T06:21:19.560Z,22.53
2023-04-10T06:23:46.903Z,22.53
2023-04-10T06:26:13.548Z,22.54
2023-04-10T06:28:41.048Z,22.53
2023-04-10T06:31:07.757Z,22.52
2023-04-10T06:33:36.781Z,22.53
2023-04-10T06:36:06.821Z,22.53
2023-04-10T06:38:38.871Z,22.52
2023-04-10T06:41:06.296Z,22.54
2023-04-10T06:43:39.086Z,22.54
2023-04-10T06:46:06.243Z,22.54
2023-04-10T06:48:33.662Z,22.55
2023-04-10T06:51:03.124Z,22.55
2023-04-10T06:53:30.096Z,22.54
2023-04-10T06:55:56.945Z,22.54
2023-04-10T06:58:24.493Z,22.56
2023-04-10T07:00:51.467Z,22.54
2023-04-10T07:03:18.069Z,22.55
2023-04-10T07:05:44.753Z,22.57
2023-04-10T07:08:11.445Z,22.56
2023-04-10T07:10:38.076Z,22.57
2023-04-10T07:13:04.654Z,22.57
2023-04-10T07:15:31.295Z,22.56
2023-04-10T07:17:57.904Z,22.57
2023-04-10T07:20:24.554Z,22.57
2023-04-10T07:22:53.096Z,22.58
2023-04-10T07:25:19.700Z,22.57
2023-04-10T07:27:46.226Z,22.58
2023-04-10T07:30:13.896Z,22.58
2023-04-10T07:32:42.245Z,22.59
2023-04-10T07:35:09.697Z,22.59
2023-04-10T07:37:36.604Z,22.60
2023-04-10T07:40:03.627Z,22.60
2023-04-10T07:42:30.391Z,22.60
2023-04-10T07:44:57.440Z,22.60
2023-04-10T07:47:24.437Z,22.61
2023-04-10T07:49:52.626Z,22.58
2023-04-10T07:52:19.775Z,22.61
2023-04-10T07:54:46.756Z,22.62
2023-04-10T07:57:13.510Z,22.64
2023-04-10T07:59:40.184Z,22.63
2023-04-10T08:02:06.898Z,22.64
2023-04-10T08:04:34.058Z,22.63
2023-04-10T08:07:01.217Z,22.52
2023-04-10T08:09:28.142Z,22.68
2023-04-10T08:11:56.515Z,22.69
2023-04-10T08:14:23.077Z,22.69
2023-04-10T08:16:49.641Z,22.68
2023-04-10T08:19:16.372Z,22.68
2023-04-10T08:21:42.885Z,22.70
2023-04-10T08:24:09.645Z,22.72
2023-04-10T08:26:36.290Z,22.72
2023-04-10T08:29:02.940Z,22.74
2023-04-10T08:31:29.778Z,22.74
2023-04-10T08:33:57.265Z,22.74
2023-04-10T08:36:24.426Z,22.76
2023-04-10T08:38:51.017Z,22.75
2023-04-10T08:41:19.134Z,22.76
2023-04-10T08:43:46.242Z,22.65
2023-04-10T08:46:14.587Z,22.77
2023-04-10T08:48:52.841Z,22.77
2023-04-10T08:51:26.234Z,22.73
2023-04-10T08:54:01.390Z,22.78
2023-04-10T08:56:28.133Z,22.75
2023-04-10T08:58:54.965Z,22.78
2023-04-10T09:01:23.557Z,22.79
2023-04-10T09:03:51.335Z,22.69
2023-04-10T09:06:20.237Z,22.69
2023-04-10T09:08:46.810Z,22.72
2023-04-10T09:11:13.655Z,22.79
2023-04-10T09:13:42.703Z,22.75
2023-04-10T09:16:10.602Z,22.72
2023-04-10T09:18:52.201Z,22.70
2023-04-10T09:21:21.174Z,22.75
2023-04-10T09:23:49.171Z,22.79
2023-04-10T09:26:24.322Z,22.80
2023-04-10T09:29:01.415Z,22.79
2023-04-10T09:31:36.181Z,22.79
2023-04-10T09:34:08.183Z,22.77
2023-04-10T09:36:35.185Z,22.79
2023-04-10T09:39:01.826Z,22.79
2023-04-10T09:41:29.130Z,22.80
2023-04-10T09:44:11.905Z,22.81
2023-04-10T09:46:38.599Z,22.82
2023-04-10T09:49:07.079Z,22.82
2023-04-10T09:51:37.167Z,22.84
2023-04-10T09:54:03.879Z,22.84
2023-04-10T09:56:31.261Z,22.77
2023-04-10T09:58:59.938Z,22.85
2023-04-10T10:01:34.625Z,22.85
2023-04-10T10:04:03.658Z,22.85
2023-04-10T10:06:31.995Z,22.85
2023-04-10T10:09:04.265Z,22.73
2023-04-10T10:11:35.435Z,22.84
2023-04-10T10:14:15.578Z,22.87
2023-04-10T10:16:52.408Z,22.87
2023-04-10T10:19:46.435Z,22.87
2023-04-10T10:22:14.028Z,22.87
2023-04-10T10:24:46.326Z,22.87
2023-04-10T10:27:16.480Z,22.71
2023-04-10T10:29:46.670Z,22.76
2023-04-10T10:32:14.499Z,22.85
2023-04-10T10:34:41.890Z,22.88
2023-04-10T10:37:08.859Z,22.89
2023-04-10T10:39:45.330Z,22.92
2023-04-10T10:42:45.513Z,22.87
2023-04-10T10:45:31.340Z,22.93
2023-04-10T10:47:58.304Z,22.94
2023-04-10T10:50:25.138Z,22.93
2023-04-10T10:52:53.863Z,22.91
2023-04-10T10:55:24.442Z,22.99
2023-04-10T10:57:52.696Z,22.99
2023-04-10T11:00:24.185Z,23.00
2023-04-10T11:03:11.419Z,23.00
2023-04-10T11:05:52.393Z,22.90
2023-04-10T11:08:36.032Z,23.01
2023-04-10T11:11:04.824Z,23.03
2023-04-10T11:13:32.396Z,23.03
2023-04-10T11:16:01.212Z,23.05
2023-04-10T11:18:47.282Z,23.05
2023-04-10T11:21:20.166Z,23.06
2023-04-10T11:23:58.590Z,23.07
2023-04-10T11:26:38.183Z,23.09
2023-04-10T11:29:19.917Z,23.09
2023-04-10T11:31:55.151Z,23.10
2023-04-10T11:34:23.563Z,23.11
2023-04-10T11:36:50.610Z,23.07
2023-04-10T11:39:18.999Z,23.03
2023-04-10T11:41:49.647Z,23.13
2023-04-10T11:44:31.624Z,23.12
2023-04-10T11:46:58.856Z,23.09
2023-04-10T11:49:31.382Z,23.05
2023-04-10T11:51:58.302Z,23.15
2023-04-10T11:54:26.823Z,22.81
2023-04-10T11:57:03.882Z,23.15
2023-04-10T11:59:34.378Z,23.15
2023-04-10T12:02:09.539Z,22.96
2023-04-10T12:04:37.307Z,22.86
2023-04-10T12:07:04.358Z,23.15
2023-04-10T12:09:31.123Z,23.11
2023-04-10T12:12:06.049Z,23.15
2023-04-10T12:14:33.958Z,23.16
2023-04-10T12:17:02.554Z,23.08
2023-04-10T12:19:31.142Z,23.15
2023-04-10T12:21:59.463Z,23.18
2023-04-10T12:24:54.113Z,23.18
2023-04-10T12:27:20.869Z,23.18
2023-04-10T12:29:48.515Z,23.17
2023-04-10T12:32:15.465Z,23.14
2023-04-10T12:34:42.650Z,23.17
2023-04-10T12:37:14.367Z,23.05
2023-04-10T12:39:40.926Z,23.06
2023-04-10T12:42:20.919Z,23.18
2023-04-10T12:44:54.472Z,23.18
2023-04-10T12:47:22.324Z,23.14
2023-04-10T12:50:05.451Z,23.19
2023-04-10T12:52:32.095Z,23.20
2023-04-10T12:55:11.094Z,23.22
2023-04-10T12:57:38.178Z,23.19
2023-04-10T13:00:06.319Z,23.23
2023-04-10T13:02:33.351Z,23.23
2023-04-10T13:05:00.136Z,23.24
2023-04-10T13:07:26.682Z,23.24
2023-04-10T13:09:53.195Z,23.21
2023-04-10T13:12:19.768Z,23.12
2023-04-10T13:14:46.635Z,23.26
2023-04-10T13:17:13.280Z,23.26
2023-04-10T13:19:39.850Z,23.27
2023-04-10T13:22:06.470Z,23.23
2023-04-10T13:24:33.126Z,23.28
2023-04-10T13:26:59.767Z,23.29
2023-04-10T13:29:26.300Z,23.27
2023-04-10T13:31:53.118Z,23.28
2023-04-10T13:34:19.897Z,23.28
2023-04-10T13:36:46.597Z,23.27
2023-04-10T13:39:13.232Z,23.24
2023-04-10T13:41:40.146Z,23.26
2023-04-10T13:44:06.654Z,23.17
2023-04-10T13:46:33.512Z,23.13
2023-04-10T13:49:00.627Z,23.30
2023-04-10T13:51:27.863Z,23.21
2023-04-10T13:53:54.509Z,23.31
2023-04-10T13:56:21.150Z,23.25
2023-04-10T13:58:49.098Z,23.30
2023-04-10T14:01:15.849Z,23.30
2023-04-10T14:03:42.705Z,23.20
2023-04-10T14:06:09.408Z,23.29
2023-04-10T14:08:38.787Z,23.29
2023-04-10T14:11:05.733Z,23.30
2023-04-10T14:13:32.341Z,23.28
2023-04-10T14:15:58.998Z,23.28
2023-04-10T14:18:25.565Z,23.28
2023-04-10T14:20:52.148Z,23.20
2023-04-10T14:23:18.758Z,23.14
2023-04-10T14:25:46.138Z,23.30
2023-04-10T14:28:17.518Z,23.22
2023-04-10T14:30:48.721Z,23.24
2023-04-10T14:33:15.846Z,23.19
2023-04-10T14:35:43.372Z,23.13
2023-04-10T14:38:10.389Z,23.37
2023-04-10T14:43:03.571Z,23.36
2023-04-10T14:45:30.263Z,23.34
2023-04-10T14:47:57.101Z,23.38
2023-04-10T14:50:23.729Z,23.38
2023-04-10T14:52:52.090Z,23.24
2023-04-10T14:55:18.796Z,23.37
2023-04-10T14:57:45.424Z,23.37
2023-04-10T15:00:12.427Z,23.31
2023-04-10T15:02:39.112Z,23.32
2023-04-10T15:05:07.112Z,23.37
2023-04-10T15:07:33.644Z,23.37
2023-04-10T15:10:00.310Z,23.31
2023-04-10T15:12:26.973Z,23.32
2023-04-10T15:14:53.743Z,23.28
2023-04-10T15:17:22.967Z,23.19
2023-04-10T15:19:49.945Z,23.37
2023-04-10T15:22:16.568Z,23.22
2023-04-10T15:24:50.021Z,23.37
2023-04-10T15:27:20.836Z,23.37
2023-04-10T15:29:47.343Z,23.32
2023-04-10T15:32:13.932Z,23.35
2023-04-10T15:34:41.911Z,23.31
2023-04-10T15:37:08.489Z,23.35
2023-04-10T15:42:05.936Z,23.36
2023-04-10T15:44:32.684Z,23.33
2023-04-10T15:46:59.365Z,23.37
2023-04-10T15:49:36.379Z,23.28
2023-04-10T15:52:06.219Z,23.38
2023-04-10T15:54:35.967Z,23.39
2023-04-10T15:57:03.654Z,23.40
2023-04-10T15:59:30.424Z,23.40
2023-04-10T16:01:57.153Z,23.33
2023-04-10T16:04:24.151Z,23.40
2023-04-10T16:06:53.501Z,23.40
2023-04-10T16:09:25.706Z,23.40
2023-04-10T16:11:54.008Z,23.39
2023-04-10T16:14:20.891Z,23.40
2023-04-10T16:16:47.569Z,23.40
2023-04-10T16:19:14.321Z,23.25
2023-04-10T16:21:43.042Z,23.41
2023-04-10T16:24:09.945Z,23.41
2023-04-10T16:26:36.820Z,23.35
2023-04-10T16:29:03.481Z,23.30
2023-04-10T16:31:31.021Z,23.40
2023-04-10T16:33:57.726Z,23.41
2023-04-10T16:36:24.332Z,23.42
2023-04-10T16:38:50.859Z,23.42
2023-04-10T16:41:18.481Z,23.42
2023-04-10T16:43:45.339Z,23.35
2023-04-10T16:46:12.030Z,23.40
2023-04-10T16:48:38.612Z,23.39
2023-04-10T16:51:06.879Z,23.43
2023-04-10T16:53:35.791Z,23.43
2023-04-10T16:56:04.968Z,23.42
2023-04-10T16:58:33.807Z,23.43
2023-04-10T17:01:00.700Z,23.34
2023-04-10T17:03:27.964Z,23.42
2023-04-10T17:05:54.692Z,23.32
2023-04-10T17:08:21.192Z,23.42
2023-04-10T17:10:47.737Z,23.41
2023-04-10T17:13:14.360Z,23.41
2023-04-10T17:15:40.927Z,23.40
2023-04-10T17:18:07.509Z,23.40
2023-04-10T17:20:37.230Z,23.28
2023-04-10T17:23:03.974Z,23.33
2023-04-10T17:25:33.551Z,23.39
2023-04-10T17:28:00.581Z,23.37
2023-04-10T17:30:27.309Z,23.39
2023-04-10T17:32:53.876Z,23.38
2023-04-10T17:35:20.503Z,23.38
2023-04-10T17:37:47.071Z,23.37
2023-04-10T17:40:13.676Z,23.38
2023-04-10T17:42:40.412Z,23.36
2023-04-10T17:45:07.440Z,23.36
2023-04-10T17:47:34.919Z,23.31
2023-04-10T17:50:02.345Z,23.33
2023-04-10T17:52:29.035Z,23.30
2023-04-10T17:54:55.787Z,23.31
2023-04-10T17:57:22.902Z,23.32
2023-04-10T17:59:49.512Z,23.25
2023-04-10T18:04:46.142Z,23.15
2023-04-10T18:07:12.666Z,23.27
2023-04-10T18:09:39.325Z,23.31
2023-04-10T18:12:06.183Z,23.31
2023-04-10T18:14:32.854Z,23.18
2023-04-10T18:16:59.550Z,23.23
2023-04-10T18:19:29.278Z,23.29
2023-04-10T18:21:57.041Z,23.28
2023-04-10T18:24:23.715Z,23.29
2023-04-10T18:26:53.938Z,23.28
2023-04-10T18:29:20.868Z,23.27
2023-04-10T18:31:47.390Z,23.26
2023-04-10T18:34:14.551Z,23.26
2023-04-10T18:36:41.277Z,23.23
2023-04-10T18:39:08.065Z,23.16
2023-04-10T18:44:08.423Z,23.24
2023-04-10T18:46:38.910Z,23.22
2023-04-10T18:49:12.437Z,23.18
2023-04-10T18:51:46.361Z,23.20
2023-04-10T18:54:22.527Z,23.19
2023-04-10T18:56:49.662Z,23.06
2023-04-10T18:59:17.984Z,23.18
2023-04-10T19:01:44.911Z,22.85
2023-04-10T19:04:14.489Z,23.16
2023-04-10T19:06:46.298Z,23.17
2023-04-10T19:14:12.725Z,23.13
2023-04-10T19:16:51.867Z,23.12
2023-04-10T19:19:28.118Z,22.79
2023-04-10T19:21:54.931Z,23.11
2023-04-10T19:24:26.738Z,23.06
2023-04-10T19:26:56.315Z,23.11
2023-04-10T19:29:28.121Z,23.11
2023-04-10T19:32:02.170Z,23.10
2023-04-10T19:34:37.171Z,23.08
2023-04-10T19:37:07.231Z,23.10
2023-04-10T19:39:36.186Z,23.10
2023-04-10T19:42:03.578Z,23.04
2023-04-10T19:44:40.813Z,23.04
2023-04-10T19:47:09.609Z,23.09
2023-04-10T19:49:39.064Z,23.08
2023-04-10T19:52:06.603Z,23.08
2023-04-10T19:54:35.364Z,23.05
2023-04-10T19:57:02.473Z,22.98
2023-04-10T19:59:36.948Z,23.07
2023-04-10T20:02:04.851Z,23.04
2023-04-10T20:04:34.481Z,23.06
2023-04-10T20:07:05.951Z,23.06
2023-04-10T20:09:33.264Z,23.03
2023-04-10T20:11:59.893Z,23.06
2023-04-10T20:14:26.555Z,23.05
2023-04-10T20:16:53.294Z,22.96
2023-04-10T20:19:21.116Z,23.03
2023-04-10T20:21:47.647Z,23.03
2023-04-10T20:24:14.268Z,23.03
2023-04-10T20:26:40.834Z,23.03
2023-04-10T20:29:07.952Z,22.86
2023-04-10T20:31:34.856Z,23.01
2023-04-10T20:34:05.043Z,22.96
2023-04-10T20:38:56.347Z,22.99
2023-04-10T20:41:25.278Z,22.97
2023-04-10T20:43:52.764Z,22.97
2023-04-10T20:46:19.571Z,22.96
2023-04-10T20:48:46.172Z,22.90
2023-04-10T20:51:12.806Z,22.90
2023-04-10T20:53:43.250Z,22.92
2023-04-10T20:56:09.907Z,22.93
2023-04-10T20:58:36.796Z,22.91
2023-04-10T21:01:03.544Z,22.84
2023-04-10T21:03:30.490Z,22.93
2023-04-10T21:05:57.369Z,22.87
2023-04-10T21:08:23.984Z,22.90
2023-04-10T21:10:51.288Z,22.91
2023-04-10T21:13:17.785Z,22.92
2023-04-10T21:15:44.724Z,22.92
2023-04-10T21:18:11.302Z,22.92
2023-04-10T21:20:37.997Z,22.76
2023-04-10T21:23:04.619Z,22.92
2023-04-10T21:25:33.014Z,22.67
2023-04-10T21:28:00.803Z,22.93
2023-04-10T21:30:29.078Z,22.94
2023-04-10T21:32:55.869Z,22.86
2023-04-10T21:35:24.609Z,22.85
2023-04-10T21:37:56.601Z,22.83
2023-04-10T21:40:24.731Z,22.88
2023-04-10T21:42:51.695Z,22.95
2023-04-10T21:45:18.502Z,22.69
2023-04-10T21:47:45.141Z,22.88
2023-04-10T21:50:11.793Z,22.96
2023-04-10T21:52:38.469Z,22.93
2023-04-10T21:55:06.418Z,22.87
2023-04-10T21:57:33.055Z,22.98
2023-04-10T21:59:59.609Z,22.97
2023-04-10T22:02:26.356Z,22.98
2023-04-10T22:04:54.709Z,22.86
2023-04-10T22:07:21.651Z,22.97
2023-04-10T22:09:48.290Z,22.92
2023-04-10T22:12:14.869Z,22.96
2023-04-10T22:14:41.466Z,22.90
2023-04-10T22:17:08.116Z,22.95
2023-04-10T22:19:34.867Z,22.80
2023-04-10T22:22:01.893Z,22.88
2023-04-10T22:24:28.714Z,22.85
2023-04-10T22:26:55.243Z,22.92
2023-04-10T22:29:22.781Z,22.92
2023-04-10T22:31:49.328Z,22.90
2023-04-10T22:34:15.890Z,22.89
2023-04-10T22:36:42.473Z,22.89
2023-04-10T22:39:09.178Z,22.83
2023-04-10T22:41:35.808Z,22.84
2023-04-10T22:44:02.521Z,22.87
2023-04-10T22:46:29.207Z,22.87
2023-04-10T22:48:56.902Z,22.82
2023-04-10T22:53:45.653Z,22.84
2023-04-10T22:56:12.403Z,22.70
2023-04-10T22:58:40.287Z,22.74
2023-04-10T23:01:08.317Z,22.67
2023-04-10T23:03:35.459Z,22.81
2023-04-10T23:06:02.450Z,22.81
2023-04-10T23:08:29.031Z,22.74
2023-04-10T23:10:55.937Z,22.72
2023-04-10T23:13:22.569Z,22.81
2023-04-10T23:15:50.595Z,22.78
2023-04-10T23:18:17.373Z,22.79
2023-04-10T23:20:44.012Z,22.76
2023-04-10T23:23:10.595Z,22.75
2023-04-10T23:25:37.348Z,22.69
2023-04-10T23:28:04.226Z,22.67
2023-04-10T23:30:33.682Z,22.77
2023-04-10T23:33:00.266Z,22.75
2023-04-10T23:35:27.155Z,22.73
2023-04-10T23:37:54.290Z,22.72
2023-04-10T23:40:21.540Z,22.73
2023-04-10T23:42:48.086Z,22.66
2023-04-10T23:45:14.681Z,22.62
2023-04-10T23:47:41.247Z,22.67
2023-04-10T23:50:08.416Z,22.70
2023-04-10T23:52:34.938Z,22.59
2023-04-10T23:55:01.591Z,22.58
2023-04-10T23:57:28.155Z,22.69
2023-04-10T23:59:54.776Z,22.67
